Time;durP1;ratioP1;P1;durP2;ratioP2;P2;SDS_P1;SDS_P2;PMS_P1;PMS_P2;Temp;Humidity;BMP_temperature;BMP_pressure;BME280_temperature;BME280_humidity;BME280_pressure;Samples;Min_cycle;Max_cycle;Signal;HPM_P1;HPM_P2
2022/09/22 00:17:49;;;;;;;6.93;3.53;;;18.20;73.70;;;;;;5085864;27;20418;-78
2022/09/22 00:20:16;;;;;;;8.63;2.92;;;18.40;75.00;;;;;;5085234;28;20398;-79
2022/09/22 00:22:43;;;;;;;3.90;2.95;;;18.40;74.90;;;;;;5085800;28;20020;-83
2022/09/22 00:25:09;;;;;;;7.68;4.57;;;18.50;74.80;;;;;;5086500;28;20024;-68
2022/09/22 00:27:36;;;;;;;9.52;3.47;;;18.50;74.60;;;;;;5083131;28;20022;-68
2022/09/22 00:30:02;;;;;;;25.52;3.33;;;18.50;74.50;;;;;;5084826;28;20020;-68
2022/09/22 00:32:29;;;;;;;7.68;3.08;;;18.60;74.40;;;;;;5088285;28;20021;-71
2022/09/22 00:34:55;;;;;;;9.77;3.42;;;18.50;74.20;;;;;;5087029;28;20528;-68
2022/09/22 00:37:22;;;;;;;8.35;2.67;;;18.50;74.30;;;;;;5086148;28;20031;-69
2022/09/22 00:39:48;;;;;;;8.00;3.13;;;18.50;74.90;;;;;;5088061;28;20020;-68
2022/09/22 00:42:15;;;;;;;7.65;3.45;;;18.50;74.90;;;;;;5084450;28;20103;-75
2022/09/22 00:44:43;;;;;;;6.00;3.08;;;18.50;74.90;;;;;;5085202;28;20029;-70
2022/09/22 00:47:28;;;;;;;9.38;3.90;;;18.50;75.00;;;;;;5088480;28;20028;-84
2022/09/22 00:50:13;;;;;;;8.25;3.42;;;18.40;74.80;;;;;;5084721;28;20024;-69
2022/09/22 00:52:57;;;;;;;6.63;3.27;;;18.40;75.20;;;;;;5088912;28;20090;-71
2022/09/22 00:55:33;;;;;;;11.95;3.22;;;18.40;75.30;;;;;;5089005;28;20066;-69
2022/09/22 00:58:01;;;;;;;10.05;3.10;;;18.40;75.50;;;;;;5083087;28;20345;-68
2022/09/22 01:00:28;;;;;;;4.47;3.28;;;18.40;75.50;;;;;;5086626;28;20035;-68
2022/09/22 01:02:58;;;;;;;5.97;3.13;;;18.40;75.20;;;;;;5085236;28;20030;-70
2022/09/22 01:05:28;;;;;;;6.57;2.92;;;18.30;74.90;;;;;;5087121;28;20123;-68
2022/09/22 01:07:54;;;;;;;5.53;2.75;;;18.40;75.00;;;;;;5083010;28;20024;-68
2022/09/22 01:10:22;;;;;;;15.55;4.30;;;18.40;75.10;;;;;;5084518;28;20028;-68
2022/09/22 01:13:17;;;;;;;10.57;3.22;;;18.40;75.40;;;;;;5085173;28;20028;-69
2022/09/22 01:16:15;;;;;;;7.93;3.90;;;18.40;75.70;;;;;;5082436;28;20076;-68
2022/09/22 01:19:01;;;;;;;18.50;3.13;;;18.30;75.70;;;;;;5067325;28;20663;-74
2022/09/22 01:21:34;;;;;;;5.80;2.35;;;18.30;76.10;;;;;;5074011;28;20015;-68
2022/09/22 01:24:03;;;;;;;5.47;2.92;;;18.30;75.90;;;;;;5073587;28;20025;-74
2022/09/22 01:26:56;;;;;;;3.80;2.90;;;18.20;75.60;;;;;;5072714;28;20054;-69
2022/09/22 01:30:13;;;;;;;8.35;3.30;;;18.20;75.50;;;;;;5067694;28;20024;-72
2022/09/22 01:32:39;;;;;;;;;;;18.20;75.50;;;;;;5047643;28;20059;-69
2022/09/22 01:35:42;;;;;;;8.13;2.35;;;18.20;75.70;;;;;;5074576;28;19911;-70
2022/09/22 01:38:35;;;;;;;7.60;2.10;;;18.10;76.50;;;;;;5072832;28;20023;-68
2022/09/22 01:41:07;;;;;;;6.57;3.10;;;18.20;76.60;;;;;;5075074;28;20136;-68
2022/09/22 01:43:52;;;;;;;6.93;2.25;;;18.10;77.00;;;;;;5067385;28;20021;-72
2022/09/22 01:46:53;;;;;;;8.43;4.28;;;18.10;78.10;;;;;;5067225;28;20037;-68
2022/09/22 01:49:22;;;;;;;11.95;2.83;;;18.10;77.30;;;;;;5069582;28;20483;-78
2022/09/22 01:51:57;;;;;;;10.40;2.75;;;18.10;77.70;;;;;;5073877;28;20036;-68
2022/09/22 01:54:33;;;;;;;12.75;4.63;;;18.10;77.90;;;;;;5069006;28;20414;-69
2022/09/22 01:57:22;;;;;;;4.25;2.50;;;18.10;77.60;;;;;;5068557;28;20082;-76
2022/09/22 01:59:56;;;;;;;37.45;4.90;;;18.10;77.50;;;;;;5071699;28;20020;-74
2022/09/22 02:02:29;;;;;;;9.68;3.75;;;18.10;77.50;;;;;;5070321;28;20488;-70
2022/09/22 02:04:59;;;;;;;10.23;3.28;;;18.00;77.90;;;;;;5070712;28;20119;-73
2022/09/22 02:07:39;;;;;;;10.07;3.78;;;18.00;78.50;;;;;;5071297;28;20009;-68
2022/09/22 02:10:11;;;;;;;4.78;3.30;;;18.00;78.50;;;;;;5071879;28;20043;-70
2022/09/22 02:12:38;;;;;;;14.63;4.68;;;18.00;78.50;;;;;;5069062;28;20023;-69
2022/09/22 02:18:02;;;;;;;7.57;3.88;;;18.00;78.10;;;;;;5061733;28;20090;-72
2022/09/22 02:20:29;;;;;;;8.27;3.60;;;18.00;77.90;;;;;;5069188;28;20032;-70
2022/09/22 02:22:56;;;;;;;6.10;4.45;;;18.00;77.50;;;;;;5069304;28;20077;-78
2022/09/22 02:25:23;;;;;;;9.48;5.20;;;18.00;77.30;;;;;;5074020;28;20032;-75
2022/09/22 02:27:53;;;;;;;9.75;5.47;;;17.90;77.00;;;;;;5069263;28;20028;-70
2022/09/22 02:30:21;;;;;;;7.68;5.15;;;17.90;76.70;;;;;;5067047;28;20028;-69
2022/09/22 02:32:50;;;;;;;9.45;5.75;;;17.90;75.80;;;;;;5069662;28;20421;-69
2022/09/22 02:35:17;;;;;;;7.45;5.28;;;17.90;74.70;;;;;;5073187;28;20028;-77
2022/09/22 02:37:50;;;;;;;6.43;4.72;;;17.80;73.80;;;;;;5074083;28;20063;-80
2022/09/22 02:40:36;;;;;;;9.10;4.70;;;17.80;73.20;;;;;;5077573;28;20050;-74
2022/09/22 02:43:05;;;;;;;7.53;4.72;;;17.80;73.10;;;;;;5072082;28;20017;-74
2022/09/22 02:46:03;;;;;;;6.50;4.05;;;17.80;73.30;;;;;;5068305;28;20041;-69
2022/09/22 02:48:43;;;;;;;5.35;3.60;;;17.70;73.10;;;;;;5052673;28;20040;-75
2022/09/22 02:51:09;;;;;;;6.22;3.97;;;17.70;73.20;;;;;;5065454;28;20012;-78
2022/09/22 02:53:36;;;;;;;7.38;4.35;;;17.70;73.20;;;;;;5069100;28;20417;-68
2022/09/22 02:56:03;;;;;;;7.95;4.40;;;17.70;73.20;;;;;;5070534;28;20024;-79
2022/09/22 02:58:30;;;;;;;27.27;6.22;;;17.60;73.30;;;;;;5066911;28;20025;-68
2022/09/22 03:00:56;;;;;;;5.82;4.35;;;17.60;73.80;;;;;;5069673;28;20479;-72
2022/09/22 03:03:23;;;;;;;8.02;4.45;;;17.60;74.10;;;;;;5065472;28;20017;-73
2022/09/22 03:05:49;;;;;;;6.65;5.68;;;17.60;74.20;;;;;;5068399;28;20087;-74
2022/09/22 03:08:16;;;;;;;8.63;4.95;;;17.60;73.90;;;;;;5071114;28;20100;-73
2022/09/22 03:10:43;;;;;;;12.70;5.18;;;17.60;73.50;;;;;;5068829;28;20438;-71
2022/09/22 03:13:09;;;;;;;6.82;4.05;;;17.60;73.00;;;;;;5072677;28;20052;-69
2022/09/22 03:15:36;;;;;;;7.45;5.40;;;17.60;72.90;;;;;;5068491;28;20024;-68
2022/09/22 03:18:03;;;;;;;26.50;16.40;;;17.60;72.80;;;;;;5068936;28;20017;-67
2022/09/22 03:20:30;;;;;;;27.80;15.65;;;17.60;72.90;;;;;;5067068;28;20043;-69
2022/09/22 03:22:56;;;;;;;20.00;10.77;;;17.50;73.00;;;;;;5072427;28;20025;-68
2022/09/22 03:25:23;;;;;;;8.35;6.65;;;17.60;72.60;;;;;;5068656;28;20071;-69
2022/09/22 03:27:50;;;;;;;7.07;5.28;;;17.50;71.70;;;;;;5069592;28;20107;-68
2022/09/22 03:30:16;;;;;;;7.43;5.20;;;17.50;70.90;;;;;;5064299;28;20394;-67
2022/09/22 03:32:43;;;;;;;7.40;6.18;;;17.50;70.50;;;;;;5072099;28;20103;-68
2022/09/22 03:35:09;;;;;;;7.88;4.88;;;17.40;70.20;;;;;;5070466;28;20522;-69
2022/09/22 03:37:35;;;;;;;6.57;4.25;;;17.40;70.20;;;;;;5067821;28;20045;-68
2022/09/22 03:40:03;;;;;;;5.15;3.95;;;17.40;70.30;;;;;;5068682;28;20024;-75
2022/09/22 03:42:31;;;;;;;12.20;4.90;;;17.40;70.60;;;;;;5067262;28;20482;-69
2022/09/22 03:44:58;;;;;;;6.00;4.13;;;17.30;70.80;;;;;;5068827;28;20127;-68
2022/09/22 03:47:25;;;;;;;3.90;3.05;;;17.40;71.10;;;;;;5069728;28;20020;-70
2022/09/22 03:49:51;;;;;;;4.20;3.58;;;17.40;71.90;;;;;;5069339;28;20482;-67
2022/09/22 03:52:18;;;;;;;5.07;3.88;;;17.40;71.40;;;;;;5067964;28;20073;-68
2022/09/22 03:54:44;;;;;;;5.32;3.05;;;17.40;71.50;;;;;;5064882;28;20465;-77
2022/09/22 03:57:11;;;;;;;4.93;3.22;;;17.40;71.60;;;;;;5068397;28;20028;-69
2022/09/22 03:59:37;;;;;;;8.27;3.92;;;17.40;71.60;;;;;;5067935;28;20067;-67
2022/09/22 04:02:04;;;;;;;7.43;3.85;;;17.40;71.80;;;;;;5069887;28;20020;-69
2022/09/22 04:04:31;;;;;;;6.88;3.83;;;17.40;72.00;;;;;;5071994;28;20389;-68
2022/09/22 04:06:58;;;;;;;5.05;3.30;;;17.40;72.20;;;;;;5066333;28;20476;-71
2022/09/22 04:09:25;;;;;;;14.50;10.50;;;17.40;72.30;;;;;;5068357;28;20379;-75
2022/09/22 04:11:51;;;;;;;18.15;12.25;;;17.50;72.70;;;;;;5067291;28;20035;-69
2022/09/22 04:14:21;;;;;;;18.95;8.30;;;17.40;72.60;;;;;;5067716;28;20485;-75
2022/09/22 04:16:48;;;;;;;15.02;6.38;;;17.50;72.60;;;;;;5066892;28;20640;-70
2022/09/22 04:19:15;;;;;;;13.52;5.15;;;17.40;72.40;;;;;;5068222;28;20020;-71
2022/09/22 04:21:42;;;;;;;9.40;4.05;;;17.50;72.50;;;;;;5070748;28;20020;-71
2022/09/22 04:24:10;;;;;;;7.45;4.20;;;17.50;72.60;;;;;;5069684;28;20020;-72
2022/09/22 04:26:37;;;;;;;10.38;4.03;;;17.50;72.60;;;;;;5069791;28;20025;-72
2022/09/22 04:29:04;;;;;;;9.43;4.75;;;17.40;72.60;;;;;;5069304;28;20357;-71
2022/09/22 04:31:31;;;;;;;26.27;19.35;;;17.40;73.90;;;;;;5066963;28;20032;-70
2022/09/22 04:33:57;;;;;;;24.95;19.80;;;17.40;74.70;;;;;;5068352;28;20033;-71
2022/09/22 04:36:24;;;;;;;28.70;17.27;;;17.40;74.60;;;;;;5070718;28;20028;-71
2022/09/22 04:38:50;;;;;;;18.08;11.52;;;17.40;74.30;;;;;;5070053;28;20576;-68
2022/09/22 04:41:17;;;;;;;11.55;7.53;;;17.40;74.10;;;;;;5069494;28;20043;-69
2022/09/22 04:43:43;;;;;;;15.23;7.22;;;17.40;74.00;;;;;;5067705;28;20083;-71
2022/09/22 04:46:09;;;;;;;11.27;5.72;;;17.40;74.00;;;;;;5068749;28;20562;-72
2022/09/22 04:48:36;;;;;;;12.43;6.22;;;17.40;74.00;;;;;;5067975;28;20013;-71
2022/09/22 04:51:02;;;;;;;10.02;4.60;;;17.30;74.20;;;;;;5065444;28;20027;-71
2022/09/22 04:53:29;;;;;;;15.90;5.85;;;17.30;74.40;;;;;;5071675;28;20023;-70
2022/09/22 04:55:55;;;;;;;9.23;4.50;;;17.30;74.70;;;;;;5069646;28;20078;-70
2022/09/22 04:58:22;;;;;;;10.00;4.28;;;17.30;75.00;;;;;;5067266;28;20031;-74
2022/09/22 05:00:49;;;;;;;9.48;4.25;;;17.30;75.30;;;;;;5068536;28;20112;-71
2022/09/22 05:03:16;;;;;;;14.15;5.57;;;17.30;75.60;;;;;;5073619;28;20021;-74
2022/09/22 05:05:42;;;;;;;13.88;5.57;;;17.30;75.70;;;;;;5072587;28;20481;-71
2022/09/22 05:08:09;;;;;;;10.65;5.28;;;17.30;75.80;;;;;;5071274;28;20039;-72
2022/09/22 05:10:36;;;;;;;13.23;4.97;;;17.30;75.90;;;;;;5071779;28;22093;-76
2022/09/22 05:13:03;;;;;;;15.55;4.30;;;17.30;76.00;;;;;;5065864;28;20108;-71
2022/09/22 05:15:31;;;;;;;8.43;4.72;;;17.30;76.30;;;;;;5072199;28;20058;-72
2022/09/22 05:17:58;;;;;;;12.25;4.75;;;17.30;76.50;;;;;;5067632;28;20017;-71
2022/09/22 05:20:25;;;;;;;6.80;4.47;;;17.30;77.50;;;;;;5067905;28;20020;-71
2022/09/22 05:22:53;;;;;;;9.85;5.00;;;17.30;77.10;;;;;;5081782;28;20115;-70
2022/09/22 05:25:20;;;;;;;11.18;4.28;;;17.30;77.20;;;;;;5068818;28;20029;-76
2022/09/22 05:27:52;;;;;;;11.27;3.22;;;17.30;77.50;;;;;;5067363;28;20024;-76
2022/09/22 05:30:20;;;;;;;12.95;5.47;;;17.30;77.50;;;;;;5065611;28;20020;-70
2022/09/22 05:32:48;;;;;;;9.60;4.00;;;17.40;77.60;;;;;;5064892;28;20020;-72
2022/09/22 05:35:17;;;;;;;11.57;4.70;;;17.40;77.90;;;;;;5072335;28;20074;-71
2022/09/22 05:37:46;;;;;;;15.50;5.13;;;17.40;78.10;;;;;;5069028;28;20394;-72
2022/09/22 05:40:13;;;;;;;18.95;4.03;;;17.40;78.20;;;;;;5069240;28;20019;-75
2022/09/22 05:42:48;;;;;;;10.88;4.00;;;17.40;78.20;;;;;;5069782;28;20024;-73
2022/09/22 05:45:15;;;;;;;16.48;5.05;;;17.50;78.20;;;;;;5072051;28;20459;-71
2022/09/22 05:47:42;;;;;;;12.77;4.78;;;17.40;78.20;;;;;;5067715;28;20078;-71
2022/09/22 05:50:10;;;;;;;11.45;3.53;;;17.50;78.30;;;;;;5070251;28;20021;-74
2022/09/22 05:52:36;;;;;;;10.35;4.80;;;17.50;78.30;;;;;;5067669;28;20570;-73
2022/09/22 05:55:03;;;;;;;10.48;3.67;;;17.50;78.30;;;;;;5071796;28;20021;-72
2022/09/22 05:57:31;;;;;;;9.30;4.70;;;17.50;78.40;;;;;;5069398;28;20025;-69
2022/09/22 05:59:58;;;;;;;12.85;4.55;;;17.50;78.30;;;;;;5068194;28;20021;-74
2022/09/22 06:02:25;;;;;;;11.18;4.30;;;17.50;78.30;;;;;;5065401;28;20024;-74
2022/09/22 16:23:18;;;;;;;3.88;1.90;;;18.00;84.70;;;;;;4903218;28;4007793;-68
2022/09/22 16:25:50;;;;;;;15.30;2.25;;;18.00;85.00;;;;;;5022887;28;20100;-67
2022/09/22 16:28:17;;;;;;;7.38;2.40;;;18.10;85.10;;;;;;5034550;28;20018;-66
2022/09/22 16:30:48;;;;;;;6.38;1.85;;;18.10;84.90;;;;;;5029261;28;20021;-80
2022/09/22 16:33:15;;;;;;;5.20;2.30;;;18.10;84.60;;;;;;5027232;28;20026;-67
2022/09/22 16:35:41;;;;;;;10.43;5.15;;;18.10;84.20;;;;;;5030497;28;20017;-67
2022/09/22 16:38:08;;;;;;;14.82;11.02;;;18.10;83.90;;;;;;5008067;28;20041;-70
2022/09/22 16:40:37;;;;;;;10.18;7.38;;;18.20;83.80;;;;;;5022440;28;20029;-67
2022/09/22 16:43:06;;;;;;;6.60;5.22;;;18.10;83.50;;;;;;5022374;28;20030;-69
2022/09/22 16:48:17;;;;;;;5.70;2.85;;;18.10;82.90;;;;;;5022729;28;20400;-73
2022/09/22 16:50:44;;;;;;;5.05;2.42;;;18.10;82.60;;;;;;5020286;28;20026;-69
2022/09/22 16:53:13;;;;;;;2.70;1.98;;;18.10;82.50;;;;;;5002715;28;20048;-67
2022/09/22 16:55:48;;;;;;;3.70;1.55;;;18.10;82.50;;;;;;5022216;28;20030;-73
2022/09/22 16:58:15;;;;;;;3.08;1.15;;;18.10;82.40;;;;;;5043897;28;20035;-69
2022/09/22 17:00:42;;;;;;;1.60;0.90;;;18.10;82.30;;;;;;5037011;28;20026;-68
2022/09/22 17:03:18;;;;;;;3.35;0.88;;;18.10;82.30;;;;;;5016502;28;20029;-75
2022/09/22 17:05:45;;;;;;;13.68;7.78;;;18.10;82.30;;;;;;5022527;28;20057;-80
2022/09/22 17:08:12;;;;;;;19.80;10.60;;;18.10;82.20;;;;;;5029364;28;20014;-80
2022/09/22 17:10:38;;;;;;;26.80;18.63;;;18.00;82.20;;;;;;5020311;28;20022;-72
2022/09/22 17:13:05;;;;;;;18.05;11.00;;;18.00;82.80;;;;;;5020363;28;20408;-71
2022/09/22 17:15:34;;;;;;;12.93;6.40;;;18.00;82.20;;;;;;5045625;28;20045;-69
2022/09/22 17:18:05;;;;;;;10.35;3.55;;;18.00;82.20;;;;;;5036295;28;20030;-70
2022/09/22 17:20:31;;;;;;;10.20;2.85;;;18.00;82.20;;;;;;5013264;28;20131;-69
2022/09/22 17:22:58;;;;;;;12.88;8.15;;;18.00;82.00;;;;;;5004882;28;20561;-68
2022/09/22 17:25:27;;;;;;;23.42;18.13;;;18.00;82.00;;;;;;5007202;28;20058;-72
2022/09/22 17:27:55;;;;;;;19.55;15.02;;;18.00;82.00;;;;;;5018084;28;20510;-70
2022/09/22 17:30:22;;;;;;;16.35;11.68;;;18.00;82.10;;;;;;5010806;28;20548;-71
2022/09/22 17:32:49;;;;;;;10.55;5.75;;;18.00;82.00;;;;;;5012425;28;20029;-74
2022/09/22 17:35:15;;;;;;;5.82;2.58;;;18.00;82.00;;;;;;5010822;28;20057;-74
2022/09/22 17:37:42;;;;;;;7.47;2.28;;;17.90;82.00;;;;;;5003491;28;20503;-74
2022/09/22 17:40:10;;;;;;;2.08;1.60;;;17.90;82.00;;;;;;5009407;28;20540;-75
2022/09/22 17:42:37;;;;;;;3.90;1.17;;;17.90;82.00;;;;;;4992184;28;20079;-73
2022/09/22 17:45:06;;;;;;;2.72;1.23;;;17.90;82.00;;;;;;5017736;28;20037;-68
2022/09/22 17:55:46;;;;;;;4.53;2.22;;;17.80;81.60;;;;;;5023232;28;20112;-68
2022/09/22 17:58:12;;;;;;;2.88;1.77;;;17.90;81.60;;;;;;5016868;28;20496;-70
2022/09/22 18:00:40;;;;;;;5.40;1.25;;;17.90;81.70;;;;;;5018818;28;20021;-72
2022/09/22 18:03:07;;;;;;;4.47;1.38;;;17.80;81.80;;;;;;5009223;28;20037;-70
2022/09/22 18:05:38;;;;;;;6.43;0.95;;;17.80;81.60;;;;;;5015101;28;20633;-70
2022/09/22 18:08:05;;;;;;;14.20;1.60;;;17.80;81.60;;;;;;5004692;28;20048;-75
2022/09/22 18:10:32;;;;;;;5.68;0.98;;;17.80;82.30;;;;;;5013761;28;20018;-74
2022/09/22 18:13:00;;;;;;;5.30;1.40;;;17.80;82.70;;;;;;5008039;28;20400;-69
2022/09/22 18:15:28;;;;;;;2.53;1.08;;;17.80;82.70;;;;;;5011513;28;20784;-72
2022/09/22 18:17:56;;;;;;;5.22;1.27;;;17.80;82.50;;;;;;4983234;28;20112;-68
2022/09/22 18:20:24;;;;;;;3.97;1.08;;;17.80;82.30;;;;;;5011132;28;20410;-71
2022/09/22 18:22:50;;;;;;;3.00;1.00;;;17.80;82.20;;;;;;5013971;28;20041;-72
2022/09/22 18:25:21;;;;;;;11.05;1.95;;;17.80;82.20;;;;;;5025351;28;20099;-70
2022/09/22 18:27:52;;;;;;;2.38;0.95;;;17.80;82.00;;;;;;5011109;28;20022;-86
2022/09/22 18:30:20;;;;;;;1.67;0.88;;;17.80;81.90;;;;;;5004465;28;20052;-70
2022/09/22 18:32:48;;;;;;;3.97;1.65;;;17.90;81.80;;;;;;5007530;28;20030;-69
2022/09/22 18:35:19;;;;;;;2.20;1.80;;;17.80;81.40;;;;;;5018034;28;20026;-77
2022/09/22 18:37:54;;;;;;;8.88;1.13;;;17.80;81.20;;;;;;4986843;28;20014;-70
2022/09/22 18:40:20;;;;;;;11.00;1.85;;;17.80;81.10;;;;;;4986776;28;20101;-72
2022/09/22 18:42:47;;;;;;;3.33;1.75;;;17.80;81.10;;;;;;5010780;28;20086;-72
2022/09/22 18:45:13;;;;;;;3.10;0.88;;;17.80;81.10;;;;;;5010744;28;20048;-74
2022/09/22 18:47:42;;;;;;;3.65;0.90;;;17.80;81.10;;;;;;5008822;28;20102;-73
2022/09/22 18:50:09;;;;;;;3.30;0.80;;;17.80;81.10;;;;;;5017933;28;20006;-73
2022/09/22 18:52:37;;;;;;;3.67;1.55;;;17.80;81.10;;;;;;5010370;28;20021;-76
2022/09/22 18:55:08;;;;;;;3.13;1.05;;;17.80;81.20;;;;;;4979769;28;20392;-75
2022/09/22 18:57:35;;;;;;;2.53;1.00;;;17.70;81.00;;;;;;4994346;28;20091;-74
2022/09/22 19:00:03;;;;;;;4.63;1.48;;;17.80;81.00;;;;;;5009241;28;20038;-70
2022/09/22 19:02:29;;;;;;;2.95;1.17;;;17.70;80.90;;;;;;5006034;28;20029;-75
2022/09/22 19:04:57;;;;;;;8.73;1.77;;;17.70;81.90;;;;;;5009516;28;20096;-75
2022/09/22 19:07:36;;;;;;;6.68;1.42;;;17.70;81.40;;;;;;5006853;28;20026;-70
2022/09/22 19:10:03;;;;;;;8.88;1.00;;;17.70;81.40;;;;;;5012915;28;20052;-75
2022/09/22 19:12:35;;;;;;;2.13;0.77;;;17.60;81.40;;;;;;5015168;28;20016;-67
2022/09/22 19:15:15;;;;;;;2.83;1.00;;;17.60;81.30;;;;;;5005435;28;20372;-73
2022/09/22 19:17:43;;;;;;;6.60;1.20;;;17.60;81.30;;;;;;5006369;28;20093;-71
2022/09/22 19:20:19;;;;;;;3.38;0.82;;;17.60;81.20;;;;;;5005459;28;20087;-73
2022/09/22 19:22:46;;;;;;;2.72;1.13;;;17.60;81.10;;;;;;5006527;28;20544;-70
2022/09/22 19:25:12;;;;;;;2.67;1.33;;;17.50;80.90;;;;;;5007985;28;20068;-72
2022/09/22 19:27:39;;;;;;;5.07;1.92;;;17.60;80.90;;;;;;5018588;28;20708;-67
2022/09/22 19:30:07;;;;;;;3.30;1.40;;;17.60;80.70;;;;;;5004762;28;20032;-75
2022/09/22 19:32:33;;;;;;;3.20;1.40;;;17.50;80.80;;;;;;5005804;28;20030;-72
2022/09/22 19:35:00;;;;;;;3.50;1.10;;;17.50;81.00;;;;;;5012094;28;20020;-66
2022/09/22 19:37:28;;;;;;;6.20;3.33;;;17.50;81.30;;;;;;5010677;28;20029;-68
2022/09/22 19:39:54;;;;;;;7.50;3.35;;;17.50;81.20;;;;;;5003568;28;20026;-65
2022/09/22 19:42:21;;;;;;;10.55;6.20;;;17.50;80.90;;;;;;5002789;28;20036;-67
2022/09/22 19:44:47;;;;;;;16.25;11.02;;;17.50;81.00;;;;;;5003574;28;20026;-73
2022/09/22 19:47:14;;;;;;;18.48;10.75;;;17.50;81.30;;;;;;4992872;28;20044;-70
2022/09/22 19:49:42;;;;;;;11.05;6.13;;;17.50;81.40;;;;;;5003141;28;20030;-66
2022/09/22 19:52:11;;;;;;;8.15;3.25;;;17.50;81.60;;;;;;5004642;28;20030;-68
2022/09/22 19:54:37;;;;;;;7.45;3.15;;;17.50;81.60;;;;;;5000857;28;20468;-68
2022/09/22 19:57:04;;;;;;;6.45;2.28;;;17.50;81.60;;;;;;5006104;28;20026;-70
2022/09/22 19:59:30;;;;;;;10.23;2.35;;;17.50;81.50;;;;;;5012589;28;20043;-71
2022/09/22 20:01:57;;;;;;;3.95;1.55;;;17.50;81.40;;;;;;5006805;28;20740;-70
2022/09/22 20:04:25;;;;;;;5.78;3.13;;;17.50;81.50;;;;;;5002349;28;20022;-67
2022/09/22 20:06:51;;;;;;;3.47;1.45;;;17.50;81.60;;;;;;5005382;28;20136;-67
2022/09/22 20:09:18;;;;;;;4.38;1.67;;;17.50;81.60;;;;;;5006427;28;20030;-75
2022/09/22 20:11:47;;;;;;;3.60;1.73;;;17.40;81.70;;;;;;5004151;28;20464;-71
2022/09/22 20:14:21;;;;;;;3.03;1.92;;;17.40;81.60;;;;;;5004290;28;20057;-75
2022/09/22 20:17:05;;;;;;;5.90;2.20;;;17.40;81.50;;;;;;5006489;28;20029;-66
2022/09/22 20:19:40;;;;;;;5.15;2.03;;;17.40;81.70;;;;;;5011557;28;20066;-74
2022/09/22 20:22:24;;;;;;;6.45;2.05;;;17.40;81.80;;;;;;4990347;28;20030;-67
2022/09/22 20:24:56;;;;;;;15.18;9.02;;;17.40;81.80;;;;;;5004741;28;20043;-74
2022/09/22 20:27:24;;;;;;;35.40;26.23;;;17.40;81.90;;;;;;5003066;28;20027;-66
2022/09/22 20:29:51;;;;;;;35.63;29.15;;;17.40;82.00;;;;;;5004897;28;20010;-70
2022/09/22 20:32:18;;;;;;;29.20;21.40;;;17.40;82.00;;;;;;5010521;28;20023;-71
2022/09/22 20:34:45;;;;;;;21.02;10.98;;;17.40;81.90;;;;;;5005570;28;20030;-73
2022/09/22 20:37:14;;;;;;;15.35;6.60;;;17.40;82.10;;;;;;5009722;28;20033;-70
2022/09/22 20:39:40;;;;;;;12.18;4.95;;;17.30;82.30;;;;;;5002434;28;20026;-75
2022/09/22 20:42:08;;;;;;;10.85;2.95;;;17.30;82.40;;;;;;5014704;28;20073;-67
2022/09/22 20:44:37;;;;;;;4.90;1.90;;;17.30;82.20;;;;;;5004315;28;20026;-67
2022/09/22 20:47:04;;;;;;;11.07;3.13;;;17.30;82.00;;;;;;5004553;28;20048;-67
2022/09/22 20:49:32;;;;;;;19.65;2.28;;;17.30;81.80;;;;;;5003505;28;20392;-67
2022/09/22 20:51:59;;;;;;;11.73;2.20;;;17.30;82.40;;;;;;5008139;28;20040;-71
2022/09/22 20:54:25;;;;;;;10.05;2.53;;;17.30;82.90;;;;;;5003370;28;20030;-74
2022/09/22 20:56:52;;;;;;;6.80;1.90;;;17.30;83.10;;;;;;4990174;28;20026;-74
2022/09/22 20:59:18;;;;;;;27.73;2.95;;;17.30;83.30;;;;;;5007655;28;20026;-68
2022/09/22 21:01:45;;;;;;;8.05;1.65;;;17.30;82.40;;;;;;5006095;28;20021;-69
2022/09/22 21:04:12;;;;;;;7.68;2.80;;;17.20;82.40;;;;;;5009532;28;20022;-69
2022/09/22 21:06:38;;;;;;;7.13;1.65;;;17.20;82.90;;;;;;4993134;28;20026;-68
2022/09/22 21:11:57;;;;;;;5.55;1.65;;;17.20;83.40;;;;;;5007130;28;20086;-79
2022/09/22 21:14:25;;;;;;;6.55;1.60;;;17.20;83.60;;;;;;5015791;28;20045;-82
2022/09/22 21:16:52;;;;;;;7.95;1.50;;;17.20;83.60;;;;;;5008461;28;20040;-70
2022/09/22 21:19:20;;;;;;;6.55;1.38;;;17.20;83.60;;;;;;5006381;28;20037;-70
2022/09/22 21:21:46;;;;;;;3.63;1.30;;;17.20;83.30;;;;;;5009931;28;20030;-74
2022/09/22 21:24:13;;;;;;;6.70;1.77;;;17.20;83.00;;;;;;5017981;28;20107;-70
2022/09/22 21:26:40;;;;;;;8.65;1.83;;;17.20;83.20;;;;;;5005249;28;20025;-69
2022/09/22 21:29:10;;;;;;;8.77;1.70;;;17.20;83.80;;;;;;5006672;28;20105;-73
2022/09/22 21:31:39;;;;;;;9.13;1.88;;;17.20;84.10;;;;;;5005881;28;20075;-68
2022/09/22 21:34:06;;;;;;;7.85;2.17;;;17.20;84.40;;;;;;5015417;28;20029;-68
2022/09/22 21:36:32;;;;;;;6.10;1.67;;;17.20;84.70;;;;;;5010917;28;20094;-72
2022/09/22 21:38:59;;;;;;;3.45;1.30;;;17.30;84.90;;;;;;5010132;28;20038;-67
2022/09/22 21:41:28;;;;;;;6.93;1.70;;;17.30;85.00;;;;;;5007778;28;20018;-67
2022/09/22 21:43:55;;;;;;;9.70;2.90;;;17.30;85.00;;;;;;5010748;28;20044;-69
2022/09/22 21:46:24;;;;;;;12.48;1.50;;;17.30;84.90;;;;;;5004673;28;20030;-68
2022/09/22 21:48:53;;;;;;;15.65;1.88;;;17.30;84.80;;;;;;5008479;28;20061;-69
2022/09/22 21:51:21;;;;;;;7.43;1.85;;;17.30;84.50;;;;;;5004636;28;20097;-69
2022/09/22 21:53:51;;;;;;;9.13;2.13;;;17.30;84.30;;;;;;5028918;28;20020;-68
2022/09/22 21:56:19;;;;;;;7.35;2.17;;;17.30;84.10;;;;;;5007867;28;20114;-77
2022/09/22 21:58:48;;;;;;;6.32;1.60;;;17.30;84.00;;;;;;4988738;28;20109;-70
2022/09/22 22:01:20;;;;;;;9.27;2.80;;;17.30;83.90;;;;;;5004764;28;20022;-70
2022/09/22 22:03:48;;;;;;;6.32;1.73;;;17.30;83.70;;;;;;5013652;28;20527;-70
